Weather at Bellbrae private airstrip

Public forecast

Using degrees Celsius for public forecast. Weather courtesy of forecast.io.

Closest aviation weather report (METAR) to Bellbrae private airstrip

Closest report is Avalon Airport, 20.5 nm (37.9 km) NNE.

2023/04/01 08:00 (retrieved 26 minutes ago)

YMAV 010800Z AUTO 16010KT 9999 // OVC058 14/06 Q1020 RF000/0000

Closest aviation forecast (TAF) to Bellbrae private airstrip

Closest forecast is Avalon Airport, 20.5 nm (37.9 km) NNE.

2023/04/01 06:36 (retrieved 2 hours ago)

TAF YMAV 010502Z 0106/0206 19013KT 9999 BKN040 FM011300 28006KT 9999 BKN040 FM020200 14006KT 9999 BKN035